Time;durP1;ratioP1;P1;durP2;ratioP2;P2;SDS_P1;SDS_P2;PMS_P1;PMS_P2;Temp;Humidity;BMP_temperature;BMP_pressure;BME280_temperature;BME280_humidity;BME280_pressure;Samples;Min_cycle;Max_cycle;Signal;HPM_P1;HPM_P2
2020/12/14 00:01:00;;;;;;;9.80;2.40;;;;;;;12.96;68.28;100472.31;5011472;28;20068;-61
2020/12/14 00:03:25;;;;;;;10.85;2.47;;;;;;;13.43;65.48;100473.75;5011449;28;20030;-61
2020/12/14 00:05:51;;;;;;;9.77;2.40;;;;;;;12.65;69.21;100474.00;5011338;28;20096;-60
2020/12/14 00:08:16;;;;;;;9.47;2.60;;;;;;;13.13;66.90;100461.00;5010533;28;20029;-61
2020/12/14 00:10:42;;;;;;;6.10;1.87;;;;;;;13.02;66.82;100466.06;5011268;28;20038;-60
2020/12/14 00:13:08;;;;;;;10.05;2.95;;;;;;;13.12;65.85;100446.75;5009323;28;20057;-61
2020/12/14 00:15:34;;;;;;;6.32;2.13;;;;;;;13.07;66.61;100470.78;5011013;28;20045;-61
2020/12/14 00:17:59;;;;;;;7.73;2.60;;;;;;;12.80;67.97;100465.66;5011262;28;20038;-60
2020/12/14 00:20:25;;;;;;;13.90;4.13;;;;;;;12.86;67.11;100458.56;5010979;28;20113;-60
2020/12/14 00:22:50;;;;;;;10.80;2.53;;;;;;;13.03;66.91;100454.28;5015054;28;20042;-61
2020/12/14 00:25:16;;;;;;;15.27;2.80;;;;;;;12.85;68.49;100449.69;5014122;28;20041;-60
2020/12/14 00:27:41;;;;;;;10.60;2.53;;;;;;;13.04;66.17;100437.13;5014945;28;20713;-60
2020/12/14 00:30:07;;;;;;;8.93;2.10;;;;;;;13.15;66.00;100458.94;5014072;28;20393;-61
2020/12/14 00:32:32;;;;;;;9.83;2.23;;;;;;;12.60;69.59;100450.53;5014743;28;20034;-60
2020/12/14 00:34:58;;;;;;;6.87;2.27;;;;;;;12.89;67.63;100440.16;5014779;28;20036;-60
2020/12/14 00:37:23;;;;;;;5.53;1.90;;;;;;;13.02;66.85;100439.22;5028542;28;20060;-61
2020/12/14 00:39:49;;;;;;;9.20;2.50;;;;;;;13.18;65.99;100447.75;5031530;28;20291;-60
2020/12/14 00:42:14;;;;;;;8.13;1.93;;;;;;;13.45;64.76;100432.16;5012627;28;20061;-61
2020/12/14 00:44:40;;;;;;;6.67;2.00;;;;;;;13.16;66.76;100450.63;5014506;28;20408;-61
2020/12/14 00:47:05;;;;;;;9.43;2.03;;;;;;;13.30;66.37;100451.31;5013764;28;20050;-60
2020/12/14 00:49:31;;;;;;;8.17;2.13;;;;;;;13.44;65.71;100459.28;5014290;28;20034;-59
2020/12/14 00:51:57;;;;;;;5.47;2.30;;;;;;;13.48;66.12;100457.78;5014446;28;20119;-60
2020/12/14 00:54:23;;;;;;;;;;;;;;;13.43;66.23;100460.31;5029626;28;20072;-61
2020/12/14 00:56:48;;;;;;;9.23;2.23;;;;;;;13.35;67.14;100450.66;5024340;28;19964;-60
2020/12/14 00:59:14;;;;;;;7.30;1.90;;;;;;;13.43;67.73;100446.88;4996046;28;20038;-61
2020/12/14 01:01:39;;;;;;;5.03;2.10;;;;;;;13.28;69.10;100434.59;5013917;28;20046;-60
2020/12/14 01:04:05;;;;;;;7.97;1.80;;;;;;;13.20;69.13;100432.22;5014164;28;20040;-60
2020/12/14 01:06:30;;;;;;;7.18;1.77;;;;;;;13.06;70.86;100439.59;5012523;28;20034;-61
2020/12/14 01:08:56;;;;;;;6.97;1.63;;;;;;;12.99;70.88;100430.78;5026051;28;20436;-60
2020/12/14 01:11:26;;;;;;;7.97;1.90;;;;;;;13.56;68.04;100437.84;5013476;28;20456;-60
2020/12/14 01:13:52;;;;;;;4.55;1.52;;;;;;;13.34;68.95;100440.97;5033613;28;20034;-61
2020/12/14 01:16:18;;;;;;;9.43;2.08;;;;;;;13.10;70.48;100418.47;5032836;28;20128;-60
2020/12/14 01:18:43;;;;;;;4.90;1.90;;;;;;;13.48;69.01;100428.22;5029008;28;20118;-60
2020/12/14 01:21:09;;;;;;;7.37;2.50;;;;;;;13.32;69.63;100418.88;5011568;28;20048;-59
2020/12/14 01:23:34;;;;;;;7.13;2.03;;;;;;;13.63;68.24;100425.16;5013813;28;20508;-60
2020/12/14 01:26:00;;;;;;;6.60;1.90;;;;;;;13.74;67.32;100429.78;5013798;28;20493;-60
2020/12/14 01:28:26;;;;;;;6.45;1.80;;;;;;;13.81;66.80;100424.28;5033616;28;20037;-63
2020/12/14 01:30:51;;;;;;;8.07;1.77;;;;;;;13.79;66.50;100421.00;5035357;28;20504;-60
2020/12/14 01:33:16;;;;;;;9.17;1.80;;;;;;;13.66;67.22;100424.69;5033923;28;20033;-60
2020/12/14 01:35:42;;;;;;;7.03;1.60;;;;;;;13.52;67.84;100415.97;5036222;28;20056;-60
2020/12/14 01:38:07;;;;;;;9.60;1.50;;;;;;;13.52;68.20;100426.72;5033607;28;20040;-60
2020/12/14 01:40:33;;;;;;;3.80;1.20;;;;;;;13.49;68.39;100432.56;5033063;28;20041;-59
2020/12/14 01:42:58;;;;;;;10.80;1.97;;;;;;;13.94;66.53;100434.03;5031831;28;20417;-61
2020/12/14 01:45:24;;;;;;;7.20;1.80;;;;;;;14.18;65.04;100448.41;5032743;28;20064;-60
2020/12/14 01:47:50;;;;;;;8.80;2.73;;;;;;;14.05;65.92;100435.13;5031524;28;20057;-60
2020/12/14 01:50:16;;;;;;;6.43;1.40;;;;;;;14.27;65.22;100434.63;5030777;28;20034;-59
2020/12/14 01:52:44;;;;;;;6.75;1.70;;;;;;;14.16;65.40;100449.66;5032828;28;20045;-61
2020/12/14 01:55:15;;;;;;;5.25;1.42;;;;;;;13.50;69.39;100430.69;5031129;28;20045;-60
2020/12/14 01:57:40;;;;;;;6.00;1.40;;;;;;;13.86;67.95;100442.44;5032857;28;20045;-60
2020/12/14 02:00:08;;;;;;;5.47;2.47;;;;;;;13.87;68.15;100438.69;5031051;28;20091;-59
2020/12/14 02:02:33;;;;;;;6.78;1.38;;;;;;;14.05;66.45;100413.63;5030643;28;20068;-60
2020/12/14 02:04:59;;;;;;;3.57;1.40;;;;;;;13.94;67.81;100422.47;5032683;28;20124;-60
2020/12/14 02:07:26;;;;;;;4.35;1.95;;;;;;;13.96;68.19;100409.63;5014690;28;20033;-59
2020/12/14 02:09:54;;;;;;;;;;;;;;;13.91;68.74;100421.91;5013154;28;20038;-61
2020/12/14 02:12:22;;;;;;;5.50;1.70;;;;;;;14.12;68.70;100403.63;5012195;28;19943;-60
2020/12/14 02:14:56;;;;;;;4.55;1.23;;;;;;;13.95;68.73;100375.72;5012549;28;20095;-60
2020/12/14 02:17:24;;;;;;;6.63;1.60;;;;;;;13.74;70.61;100400.22;5011809;28;20042;-59
2020/12/14 02:19:51;;;;;;;6.07;1.80;;;;;;;13.82;70.12;100374.88;5012471;28;20672;-61
2020/12/14 02:22:17;;;;;;;5.57;1.80;;;;;;;13.79;71.52;100385.28;5010931;28;20183;-60
2020/12/14 02:24:45;;;;;;;3.97;1.40;;;;;;;13.80;72.00;100379.66;5012633;28;20178;-60
2020/12/14 02:27:14;;;;;;;8.88;1.80;;;;;;;14.04;73.56;100387.78;5012395;28;20042;-60
2020/12/14 02:29:42;;;;;;;9.40;2.15;;;;;;;14.00;75.93;100398.19;5012516;28;20050;-60
2020/12/14 02:32:11;;;;;;;5.00;2.08;;;;;;;13.73;78.48;100405.81;5012391;28;20545;-60
2020/12/14 02:34:39;;;;;;;6.93;2.13;;;;;;;13.89;77.18;100409.72;5011658;28;20061;-60
2020/12/14 02:37:07;;;;;;;7.68;2.42;;;;;;;14.04;77.76;100407.44;5011979;28;20444;-60
2020/12/14 02:39:33;;;;;;;4.43;2.13;;;;;;;14.08;77.00;100402.44;5011808;28;20041;-60
2020/12/14 02:42:00;;;;;;;3.50;1.90;;;;;;;13.82;79.86;100393.69;5011960;28;20076;-61
2020/12/14 02:44:25;;;;;;;;;;;;;;;14.12;77.53;100403.63;5010624;28;20069;-60
2020/12/14 02:46:51;;;;;;;6.57;1.63;;;;;;;14.02;78.65;100385.34;5011845;28;19918;-61
2020/12/14 02:49:16;;;;;;;4.90;1.90;;;;;;;14.22;77.15;100391.47;5011523;28;20064;-60
2020/12/14 02:51:41;;;;;;;2.97;1.70;;;;;;;13.87;79.90;100409.97;5011907;28;20069;-61
2020/12/14 02:54:07;;;;;;;3.10;1.70;;;;;;;14.01;79.69;100404.38;5011850;28;20030;-60
2020/12/14 02:56:32;;;;;;;9.10;2.27;;;;;;;13.86;81.70;100405.63;5011413;28;20037;-60
2020/12/14 02:58:58;;;;;;;7.70;1.87;;;;;;;13.64;82.73;100399.13;5012016;28;20044;-59
2020/12/14 03:01:23;;;;;;;7.70;1.83;;;;;;;13.73;82.55;100384.31;5011018;28;20049;-61
2020/12/14 03:03:49;;;;;;;4.00;1.60;;;;;;;13.76;81.82;100390.06;5026781;28;20497;-60
2020/12/14 03:06:14;;;;;;;6.67;2.03;;;;;;;13.68;84.24;100379.59;5012058;28;20029;-60
2020/12/14 03:08:39;;;;;;;7.50;2.90;;;;;;;14.08;83.14;100374.72;5011214;28;20144;-60
2020/12/14 03:11:05;;;;;;;8.50;2.90;;;;;;;13.75;86.51;100368.78;5010247;28;20041;-61
2020/12/14 03:13:30;;;;;;;9.00;2.57;;;;;;;13.82;86.45;100369.50;5010876;28;20482;-60
2020/12/14 03:15:56;;;;;;;9.17;2.90;;;;;;;13.53;89.71;100380.00;5011498;28;20449;-60
2020/12/14 03:18:21;;;;;;;6.77;2.70;;;;;;;13.41;91.76;100371.06;5009629;28;20453;-60
2020/12/14 03:20:47;;;;;;;5.07;2.53;;;;;;;13.70;89.58;100374.81;5011410;28;20037;-61
2020/12/14 03:23:12;;;;;;;3.60;2.20;;;;;;;13.49;91.67;100365.41;5011384;28;20045;-60
2020/12/14 03:25:41;;;;;;;6.50;2.43;;;;;;;13.39;93.60;100373.16;5011079;28;20528;-59
2020/12/14 03:28:06;;;;;;;6.03;2.70;;;;;;;13.46;92.74;100363.97;5026764;28;20152;-61
2020/12/14 03:30:32;;;;;;;6.60;2.90;;;;;;;13.65;93.42;100376.56;5010664;28;20143;-60
2020/12/14 03:32:57;;;;;;;11.17;3.27;;;;;;;13.29;96.55;100374.47;5010246;28;20049;-61
2020/12/14 03:35:23;;;;;;;7.97;2.83;;;;;;;13.86;92.44;100378.75;5010913;28;20045;-60
2020/12/14 03:37:48;;;;;;;7.73;2.90;;;;;;;13.65;92.45;100371.19;5011495;28;20037;-60
2020/12/14 03:40:15;;;;;;;13.93;3.60;;;;;;;13.62;93.71;100373.28;5009934;28;20088;-60
2020/12/14 03:42:42;;;;;;;8.55;3.58;;;;;;;13.72;92.78;100379.97;5010958;28;20139;-59
2020/12/14 03:45:07;;;;;;;7.05;3.28;;;;;;;13.76;92.01;100352.44;5011322;28;20381;-60
2020/12/14 03:47:33;;;;;;;8.53;2.83;;;;;;;13.70;92.01;100374.00;5010376;28;20061;-59
2020/12/14 03:49:58;;;;;;;8.27;3.03;;;;;;;14.26;88.20;100354.97;5011182;28;20124;-60
2020/12/14 03:52:25;;;;;;;7.63;2.67;;;;;;;13.75;91.97;100364.22;5010743;28;20046;-60
2020/12/14 03:54:50;;;;;;;9.07;3.50;;;;;;;14.36;85.79;100349.88;5011097;28;20431;-61
2020/12/14 03:57:16;;;;;;;6.17;2.97;;;;;;;13.99;90.37;100367.00;5014658;28;20041;-59
2020/12/14 03:59:41;;;;;;;7.60;3.30;;;;;;;13.87;90.65;100348.16;5014650;28;20458;-60
2020/12/14 04:02:07;;;;;;;7.90;3.20;;;;;;;13.73;93.59;100384.31;5015336;28;20034;-60
2020/12/14 04:04:32;;;;;;;9.67;3.77;;;;;;;14.38;87.93;100369.28;5014488;28;20042;-60
2020/12/14 04:06:58;;;;;;;6.20;3.40;;;;;;;14.05;90.12;100362.53;5015051;28;20038;-60
2020/12/14 04:09:23;;;;;;;6.90;3.20;;;;;;;13.76;92.18;100373.09;5014430;28;20037;-59
2020/12/14 04:11:49;;;;;;;5.95;3.58;;;;;;;13.98;91.57;100375.28;5013874;28;20363;-60
2020/12/14 04:14:14;;;;;;;12.83;4.47;;;;;;;13.68;96.58;100370.75;5015081;28;20033;-61
2020/12/14 04:16:42;;;;;;;4.73;3.07;;;;;;;13.57;98.30;100377.69;5014215;28;20048;-61
2020/12/14 04:19:08;;;;;;;18.83;4.38;;;;;;;15.62;98.17;100368.44;5015003;28;20474;-60
2020/12/14 04:21:34;;;;;;;24.33;4.53;;;;;;;17.20;99.25;100366.88;5014192;28;20054;-61
2020/12/14 04:24:01;;;;;;;;;;;;;;;18.77;73.27;100365.31;5015285;28;20199;-60
2020/12/14 04:26:26;;;;;;;14.33;3.60;;;;;;;16.99;75.39;100355.81;5013002;28;19918;-61
2020/12/14 04:28:51;;;;;;;8.17;3.97;;;;;;;16.38;72.70;100367.34;5013468;28;20248;-60
2020/12/14 04:31:17;;;;;;;7.77;4.20;;;;;;;16.33;73.50;100359.97;5014828;28;20109;-60
2020/12/14 04:33:42;;;;;;;11.77;4.77;;;;;;;15.78;77.61;100364.13;5014146;28;20034;-60
2020/12/14 04:36:08;;;;;;;9.43;4.37;;;;;;;15.80;78.08;100350.41;5014614;28;20041;-59
2020/12/14 04:38:34;;;;;;;8.93;4.03;;;;;;;15.81;76.98;100363.66;5014043;28;20088;-60
2020/12/14 04:41:03;;;;;;;12.68;4.20;;;;;;;15.91;77.98;100363.88;5016318;28;20025;-59
2020/12/14 04:43:29;;;;;;;8.13;4.80;;;;;;;16.12;76.25;100355.31;5033892;28;20040;-59
2020/12/14 04:45:55;;;;;;;8.82;4.47;;;;;;;15.99;77.06;100356.44;5034162;28;20112;-59
2020/12/14 04:48:20;;;;;;;11.73;4.20;;;;;;;15.46;79.42;100346.56;5034292;28;20048;-59
2020/12/14 04:50:46;;;;;;;18.43;4.20;;;;;;;15.77;79.10;100365.19;5049534;28;20103;-59
2020/12/14 04:53:12;;;;;;;40.38;5.35;;;;;;;19.72;66.22;100344.56;5033285;28;20530;-60
2020/12/14 04:55:37;;;;;;;24.13;4.32;;;;;;;18.13;62.33;100340.78;5033691;28;20147;-60
2020/12/14 04:58:06;;;;;;;9.17;3.47;;;;;;;18.82;58.52;100348.28;5033938;28;20037;-60
2020/12/14 05:00:33;;;;;;;6.57;3.92;;;;;;;18.94;57.59;100338.06;5032002;28;20398;-59
2020/12/14 05:02:59;;;;;;;7.82;4.03;;;;;;;18.37;60.02;100342.34;5034094;28;20042;-61
2020/12/14 05:05:24;;;;;;;10.83;4.40;;;;;;;17.73;65.17;100337.44;5034394;28;20053;-60
2020/12/14 05:07:50;;;;;;;9.13;4.30;;;;;;;18.24;61.99;100332.78;5032132;28;20037;-61
2020/12/14 05:10:24;;;;;;;7.87;4.30;;;;;;;17.64;64.93;100338.97;5033599;28;20500;-61
2020/12/14 05:12:51;;;;;;;8.15;4.95;;;;;;;17.92;63.75;100334.38;5033328;28;20048;-60
2020/12/14 05:15:29;;;;;;;6.38;4.38;;;;;;;17.84;66.04;100343.78;5033525;28;20072;-60
2020/12/14 05:18:07;;;;;;;10.07;4.63;;;;;;;17.94;65.47;100332.22;5033692;28;20040;-62
2020/12/14 05:20:33;;;;;;;18.85;5.25;;;;;;;18.51;60.74;100334.59;5033117;28;20049;-60
2020/12/14 05:23:01;;;;;;;7.07;4.80;;;;;;;18.58;60.68;100336.00;5033347;28;20379;-60
2020/12/14 05:25:28;;;;;;;8.45;4.60;;;;;;;18.04;63.15;100329.63;5048815;28;20496;-60
2020/12/14 05:28:16;;;;;;;7.53;4.88;;;;;;;17.80;65.21;100331.84;5032295;28;20331;-60
2020/12/14 05:30:51;;;;;;;10.10;4.80;;;;;;;17.81;64.95;100349.69;5033015;28;20041;-58
2020/12/14 05:33:18;;;;;;;7.63;5.15;;;;;;;17.76;66.66;100341.50;5014110;28;20037;-60
2020/12/14 05:35:45;;;;;;;10.07;4.57;;;;;;;18.09;71.27;100336.16;5012921;28;20093;-60
2020/12/14 05:38:16;;;;;;;23.67;5.85;;;;;;;18.12;65.58;100331.06;5013472;28;20038;-61
2020/12/14 05:40:43;;;;;;;12.55;5.00;;;;;;;17.70;68.68;100337.13;5012702;28;20038;-61
2020/12/14 05:43:14;;;;;;;8.63;5.55;;;;;;;21.37;49.40;100339.97;5011872;28;20038;-60
2020/12/14 05:45:40;;;;;;;8.82;4.93;;;;;;;21.88;46.54;100333.38;5012734;28;20073;-60
2020/12/14 05:48:24;;;;;;;;;;;;;;;21.11;48.96;100342.81;5013877;28;20053;-60
2020/12/14 05:50:52;;;;;;;8.25;5.20;;;;;;;22.17;45.98;100348.13;5011551;28;19957;-60
2020/12/14 05:53:22;;;;;;;9.73;5.80;;;;;;;21.41;47.78;100338.31;5028153;28;20042;-61
2020/12/14 05:55:47;;;;;;;9.98;5.65;;;;;;;20.99;48.57;100334.97;5012560;28;20040;-60
2020/12/14 05:58:15;;;;;;;10.43;6.05;;;;;;;21.19;49.27;100323.19;5011635;28;20034;-59
2020/12/14 06:00:42;;;;;;;11.93;6.32;;;;;;;21.06;50.13;100335.50;5012669;28;20088;-60
2020/12/14 06:03:08;;;;;;;12.15;5.93;;;;;;;19.98;54.73;100338.38;5013020;28;20045;-59
2020/12/14 06:05:36;;;;;;;10.47;6.53;;;;;;;20.75;51.86;100324.69;5012181;28;20038;-58
2020/12/14 06:08:26;;;;;;;15.43;7.63;;;;;;;21.97;47.57;100339.03;5011601;28;20370;-59
2020/12/14 06:10:57;;;;;;;16.35;7.80;;;;;;;21.94;47.11;100346.97;5012128;28;20212;-59
2020/12/14 06:13:29;;;;;;;12.10;6.55;;;;;;;20.66;51.29;100358.94;5013089;28;20034;-60
2020/12/14 06:16:00;;;;;;;15.40;7.28;;;;;;;20.62;51.82;100357.88;5012407;28;20311;-59
2020/12/14 06:18:32;;;;;;;12.02;7.10;;;;;;;20.99;50.83;100355.91;5011071;28;20405;-60
2020/12/14 06:20:59;;;;;;;11.82;6.97;;;;;;;20.43;53.22;100360.34;5011153;28;20038;-59
2020/12/14 06:23:25;;;;;;;11.50;7.28;;;;;;;21.24;49.54;100343.28;5012842;28;20041;-60
2020/12/14 06:25:51;;;;;;;14.43;7.38;;;;;;;21.54;48.64;100369.50;5012026;28;20046;-59
2020/12/14 06:28:27;;;;;;;9.05;6.22;;;;;;;20.65;51.92;100362.75;5011441;28;20045;-59
2020/12/14 06:30:53;;;;;;;15.48;6.30;;;;;;;20.40;53.73;100350.84;5014653;28;20030;-59
2020/12/14 06:33:32;;;;;;;33.03;8.32;;;;;;;21.04;50.23;100348.53;5012267;28;20244;-60
2020/12/14 06:36:17;;;;;;;11.50;6.07;;;;;;;21.18;49.97;100356.09;5026696;28;20457;-58
2020/12/14 06:38:44;;;;;;;13.27;6.07;;;;;;;24.49;40.84;100360.69;5011699;28;20069;-60
2020/12/14 06:41:20;;;;;;;9.10;5.78;;;;;;;24.17;40.71;100354.13;5012462;28;20040;-60
2020/12/14 06:43:49;;;;;;;10.98;5.45;;;;;;;22.61;49.31;100360.03;5011843;28;20045;-61
2020/12/14 06:46:26;;;;;;;11.10;5.88;;;;;;;22.82;45.95;100348.88;5018944;28;20035;-61
2020/12/14 06:48:53;;;;;;;13.27;5.47;;;;;;;24.65;39.50;100333.06;5031832;28;20543;-61
2020/12/14 06:51:18;;;;;;;11.82;5.70;;;;;;;23.01;43.20;100329.84;5026121;28;20034;-61
2020/12/14 06:53:54;;;;;;;20.67;7.28;;;;;;;21.98;45.40;100318.09;5018617;28;20038;-59
2020/12/14 06:56:26;;;;;;;12.45;5.57;;;;;;;22.13;45.70;100342.44;5019373;28;20060;-60
2020/12/14 06:58:51;;;;;;;12.48;6.38;;;;;;;22.13;45.96;100349.81;5028744;28;20497;-61
2020/12/14 07:01:37;;;;;;;11.23;6.73;;;;;;;22.12;46.07;100354.44;5031274;28;20117;-61
2020/12/14 07:04:04;;;;;;;17.15;5.95;;;;;;;25.46;43.93;100342.59;5030518;28;20037;-59
2020/12/14 07:06:30;;;;;;;17.08;6.70;;;;;;;26.23;37.53;100355.66;5026334;28;20038;-59
2020/12/14 07:08:56;;;;;;;10.00;6.32;;;;;;;24.63;39.66;100366.19;5021513;28;20095;-59
2020/12/14 07:11:24;;;;;;;12.02;6.32;;;;;;;24.17;40.82;100350.59;5024505;28;20089;-59
2020/12/14 07:13:51;;;;;;;8.80;6.57;;;;;;;23.82;41.72;100361.78;5020986;28;20393;-60
2020/12/14 07:16:19;;;;;;;10.90;6.22;;;;;;;23.00;43.42;100353.56;5020062;28;20041;-60
2020/12/14 07:18:47;;;;;;;10.23;6.00;;;;;;;24.17;41.68;100353.34;5019275;28;20049;-59
2020/12/14 07:21:17;;;;;;;11.85;6.63;;;;;;;23.11;43.60;100367.91;5020887;28;20084;-60
2020/12/14 07:23:45;;;;;;;10.73;6.47;;;;;;;23.50;43.01;100360.59;5028691;28;20056;-59
2020/12/14 07:26:13;;;;;;;10.88;6.72;;;;;;;23.89;41.80;100359.47;5030090;28;20465;-59
2020/12/14 07:28:44;;;;;;;12.23;6.57;;;;;;;23.09;43.32;100366.59;5046219;28;20045;-59
2020/12/14 07:31:18;;;;;;;13.15;6.68;;;;;;;24.64;40.48;100388.84;5025632;28;20037;-60
2020/12/14 07:33:54;;;;;;;13.27;6.10;;;;;;;23.98;41.82;100386.91;5031040;28;20063;-58
2020/12/14 07:36:20;;;;;;;11.63;7.50;;;;;;;24.12;41.25;100399.88;5031393;28;20044;-60
2020/12/14 07:38:49;;;;;;;11.77;6.68;;;;;;;23.75;42.20;100383.16;5030829;28;20446;-60
2020/12/14 07:41:15;;;;;;;10.82;7.13;;;;;;;23.97;41.45;100396.22;5031382;28;20473;-60
2020/12/14 07:44:00;;;;;;;11.95;7.03;;;;;;;24.08;41.90;100394.19;5031312;28;20088;-60
2020/12/14 07:46:32;;;;;;;9.68;6.28;;;;;;;22.73;44.91;100404.03;5018246;28;20041;-59
2020/12/14 07:49:09;;;;;;;13.15;6.68;;;;;;;23.26;44.27;100396.13;5030131;28;20099;-60
2020/12/14 07:51:45;;;;;;;11.85;6.75;;;;;;;23.96;42.85;100396.50;5030368;28;20040;-60
2020/12/14 07:54:15;;;;;;;11.15;7.03;;;;;;;22.65;46.21;100401.94;5031353;28;20056;-59
2020/12/14 07:56:48;;;;;;;12.95;6.82;;;;;;;22.55;46.23;100408.31;5030966;28;20033;-59
2020/12/14 07:59:23;;;;;;;11.48;6.78;;;;;;;23.22;44.72;100404.03;5030460;28;20060;-59
2020/12/14 08:01:49;;;;;;;11.77;6.40;;;;;;;23.27;44.70;100403.22;5030194;28;20034;-60
2020/12/14 08:04:23;;;;;;;11.00;7.13;;;;;;;24.34;41.88;100401.94;5030747;28;20069;-61
2020/12/14 08:06:51;;;;;;;9.65;6.50;;;;;;;23.71;43.13;100426.63;5030851;28;20128;-59
2020/12/14 08:09:23;;;;;;;13.82;6.72;;;;;;;23.60;43.92;100420.50;5029945;28;20038;-60
2020/12/14 08:11:49;;;;;;;11.57;7.03;;;;;;;22.99;45.28;100436.47;5030211;28;20144;-60
2020/12/14 08:14:16;;;;;;;;;;;;;;;22.33;47.77;100453.13;5030877;28;20060;-61
2020/12/14 08:16:44;;;;;;;9.90;6.78;;;;;;;22.05;48.22;100436.47;5029846;28;19917;-61
2020/12/14 08:19:15;;;;;;;10.63;7.05;;;;;;;23.36;45.24;100428.72;5031113;28;20033;-59
2020/12/14 08:21:41;;;;;;;13.90;7.40;;;;;;;23.09;45.41;100429.31;5030721;28;20438;-60
2020/12/14 08:24:10;;;;;;;10.18;7.05;;;;;;;23.27;45.17;100430.47;5028855;28;20073;-60
2020/12/14 08:26:36;;;;;;;11.98;7.05;;;;;;;22.63;47.12;100434.13;5029931;28;20060;-60
2020/12/14 08:29:02;;;;;;;10.07;7.32;;;;;;;23.03;46.15;100445.69;5028456;28;20033;-61
2020/12/14 08:31:27;;;;;;;11.07;7.55;;;;;;;22.68;46.85;100430.53;5005772;28;20108;-60
2020/12/14 08:33:56;;;;;;;9.57;7.03;;;;;;;23.01;47.07;100423.38;5009684;28;20054;-59
2020/12/14 08:36:22;;;;;;;9.88;6.53;;;;;;;22.37;48.44;100434.28;5009936;28;20113;-60
2020/12/14 08:38:48;;;;;;;;;;;;;;;22.56;47.68;100430.91;5010120;28;20473;-60
2020/12/14 08:41:20;;;;;;;10.07;7.20;;;;;;;22.10;49.49;100426.63;5010613;28;20008;-59
2020/12/14 08:43:46;;;;;;;12.65;7.15;;;;;;;21.80;50.85;100421.09;5013773;28;20357;-59
2020/12/14 08:46:18;;;;;;;11.67;7.90;;;;;;;22.42;49.86;100422.56;5011838;28;20513;-60
2020/12/14 08:48:54;;;;;;;11.90;7.85;;;;;;;22.32;50.10;100428.91;4996526;28;20061;-60
2020/12/14 08:51:33;;;;;;;11.70;7.53;;;;;;;22.81;47.95;100442.66;5014512;28;20088;-59
2020/12/14 08:54:26;;;;;;;9.48;7.20;;;;;;;22.92;47.25;100436.03;5013922;28;20056;-61
2020/12/14 08:56:52;;;;;;;9.98;6.68;;;;;;;22.82;48.02;100444.28;5013519;28;20117;-61
2020/12/14 08:59:18;;;;;;;9.23;6.75;;;;;;;22.88;47.45;100448.59;5012710;28;20124;-60
2020/12/14 09:02:04;;;;;;;10.20;6.53;;;;;;;22.45;49.81;100439.16;5013425;28;20452;-60
2020/12/14 09:04:31;;;;;;;8.95;6.10;;;;;;;22.94;46.95;100436.53;5014049;28;20038;-62
2020/12/14 09:06:58;;;;;;;7.53;5.90;;;;;;;22.87;47.87;100466.84;5013245;28;20046;-60
2020/12/14 09:09:34;;;;;;;7.82;6.10;;;;;;;23.30;47.25;100460.72;5013563;28;20088;-59
2020/12/14 09:12:02;;;;;;;8.90;5.38;;;;;;;23.59;45.62;100459.81;5013226;28;20063;-60
2020/12/14 09:14:29;;;;;;;7.20;5.50;;;;;;;23.08;46.81;100474.03;5013809;28;20030;-59
2020/12/14 09:16:57;;;;;;;9.70;5.43;;;;;;;23.99;44.21;100473.19;5012413;28;20370;-60
2020/12/14 09:19:28;;;;;;;9.30;5.40;;;;;;;23.27;45.98;100480.38;5011964;28;20706;-58
2020/12/14 09:21:54;;;;;;;7.20;5.43;;;;;;;23.10;47.40;100480.00;5013045;28;20585;-61
2020/12/14 09:24:26;;;;;;;11.40;5.63;;;;;;;22.97;47.48;100481.50;5013314;28;20306;-60
2020/12/14 09:26:54;;;;;;;7.50;4.80;;;;;;;22.76;48.15;100477.03;5012882;28;20172;-59
2020/12/14 09:29:19;;;;;;;9.27;5.23;;;;;;;23.12;47.29;100473.16;5011742;28;20627;-61
2020/12/14 09:31:56;;;;;;;7.13;4.60;;;;;;;22.62;48.88;100474.19;5012700;28;20278;-60
2020/12/14 09:34:22;;;;;;;6.68;5.10;;;;;;;23.05;48.20;100486.31;5012064;28;20046;-60
2020/12/14 09:36:56;;;;;;;7.88;4.53;;;;;;;22.80;48.11;100477.28;5011753;28;20482;-59
2020/12/14 09:39:23;;;;;;;6.23;4.77;;;;;;;22.64;48.51;100479.34;4995538;28;20195;-58
2020/12/14 09:41:50;;;;;;;6.90;4.60;;;;;;;23.31;46.80;100486.91;5012580;28;20334;-59
2020/12/14 09:44:16;;;;;;;6.73;4.53;;;;;;;23.17;46.77;100491.38;5011967;28;20768;-60
2020/12/14 09:46:42;;;;;;;6.93;5.03;;;;;;;23.62;46.42;100493.88;5024751;28;20282;-62
2020/12/14 09:49:08;;;;;;;5.93;4.53;;;;;;;23.03;47.14;100500.25;5032672;28;20401;-59
2020/12/14 09:51:35;;;;;;;6.97;4.40;;;;;;;23.43;47.09;100493.84;5032684;28;20041;-60
2020/12/14 09:54:05;;;;;;;6.97;4.17;;;;;;;23.03;48.15;100508.41;5031763;28;20041;-60
2020/12/14 09:56:31;;;;;;;6.13;4.40;;;;;;;22.83;48.02;100530.41;5032497;28;20770;-60
2020/12/14 09:58:57;;;;;;;;;;;;;;;23.31;46.85;100502.44;5032119;28;20288;-60
2020/12/14 10:01:24;;;;;;;5.47;4.17;;;;;;;24.23;44.29;100501.59;5032950;28;20207;-60
2020/12/14 10:03:51;;;;;;;7.40;4.03;;;;;;;23.24;47.08;100493.78;5027988;28;20096;-57
2020/12/14 10:06:16;;;;;;;7.37;4.13;;;;;;;24.23;44.56;100498.84;5020995;28;20287;-59
2020/12/14 10:08:42;;;;;;;7.82;4.25;;;;;;;24.66;43.06;100495.16;5025036;28;20273;-62
2020/12/14 10:11:09;;;;;;;5.20;3.33;;;;;;;24.81;42.03;100514.09;5024268;28;20038;-58
2020/12/14 10:13:35;;;;;;;5.70;2.83;;;;;;;24.37;43.08;100505.19;5032413;28;20543;-60
2020/12/14 10:16:02;;;;;;;3.70;3.03;;;;;;;24.27;43.29;100510.81;5031266;28;20045;-59
2020/12/14 10:18:27;;;;;;;4.95;3.13;;;;;;;23.73;45.24;100502.75;5032127;28;20207;-57
2020/12/14 10:20:53;;;;;;;3.83;2.80;;;;;;;24.36;43.59;100498.09;5031863;28;20220;-59
2020/12/14 10:23:19;;;;;;;8.77;3.30;;;;;;;23.54;44.60;100516.38;5031345;28;20469;-60
2020/12/14 10:25:45;;;;;;;6.28;3.22;;;;;;;23.61;45.47;100511.38;5031844;28;20091;-60
2020/12/14 10:28:11;;;;;;;8.73;3.50;;;;;;;23.27;46.60;100517.78;5031267;28;20400;-60
2020/12/14 10:30:37;;;;;;;6.30;3.08;;;;;;;23.05;47.41;100516.31;5031791;28;20115;-60
2020/12/14 10:33:03;;;;;;;4.45;2.83;;;;;;;23.40;46.04;100510.81;5030280;28;20461;-60
2020/12/14 10:35:29;;;;;;;9.35;3.88;;;;;;;24.12;44.76;100506.38;5030636;28;20036;-61
2020/12/14 10:37:55;;;;;;;5.53;2.87;;;;;;;23.46;46.00;100526.00;5031382;28;20041;-60
2020/12/14 10:40:22;;;;;;;5.10;2.78;;;;;;;23.93;45.29;100526.28;5014342;28;20048;-61
2020/12/14 10:42:48;;;;;;;5.60;3.60;;;;;;;23.74;45.19;100520.75;5030510;28;20069;-61
2020/12/14 10:45:13;;;;;;;4.63;3.03;;;;;;;24.03;44.49;100517.16;5031339;28;20764;-66
2020/12/14 10:47:39;;;;;;;5.50;2.80;;;;;;;23.77;45.20;100509.28;5031875;28;20102;-62
2020/12/14 10:50:06;;;;;;;5.53;3.13;;;;;;;23.69;45.47;100518.09;5031102;28;20037;-61
2020/12/14 10:52:32;;;;;;;6.00;3.37;;;;;;;23.74;45.97;100524.31;5031697;28;20033;-61
2020/12/14 10:54:57;;;;;;;4.50;3.30;;;;;;;23.28;46.74;100514.75;5026600;28;20290;-59
2020/12/14 10:57:22;;;;;;;6.57;3.27;;;;;;;23.16;47.33;100517.03;5017071;28;20087;-61
2020/12/14 10:59:48;;;;;;;5.57;3.60;;;;;;;23.29;46.63;100521.81;5018974;28;20474;-61
2020/12/14 11:02:13;;;;;;;6.03;3.43;;;;;;;22.97;47.67;100525.13;5019845;28;20069;-62
2020/12/14 11:04:39;;;;;;;7.13;3.43;;;;;;;23.15;47.23;100537.22;5020541;28;20362;-61
2020/12/14 11:07:08;;;;;;;5.60;2.85;;;;;;;22.55;48.21;100524.66;5024221;28;20069;-61
2020/12/14 11:09:37;;;;;;;6.17;3.20;;;;;;;22.51;49.64;100534.50;5029178;28;20048;-62
2020/12/14 11:12:06;;;;;;;4.30;2.63;;;;;;;22.44;49.81;100541.06;5030878;28;20259;-61
2020/12/14 11:14:34;;;;;;;3.73;2.53;;;;;;;22.01;51.34;100538.03;5030644;28;20631;-61
2020/12/14 11:17:02;;;;;;;3.67;2.20;;;;;;;21.98;51.37;100527.69;5021241;28;20317;-61
2020/12/14 11:19:28;;;;;;;4.97;2.50;;;;;;;21.57;52.67;100537.63;5011107;28;20313;-61
2020/12/14 11:21:55;;;;;;;5.38;2.55;;;;;;;22.14;51.67;100537.41;5010987;28;20267;-61
2020/12/14 11:24:22;;;;;;;4.63;2.60;;;;;;;21.48;53.16;100537.38;5011665;28;20046;-63
2020/12/14 11:26:48;;;;;;;4.23;2.40;;;;;;;21.67;52.59;100527.81;5024068;28;20301;-61